Flight Track Log - Related Links

Times and Time Zones

All times are in EDT time to prevent confusion due to time zone crossing. See the HYD170 flight status page for this flight to view local times or setup timezone preferences in your user account.

Time Position Orientation Groundspeed Altitude Reporting Facility
EDT Latitude Longitude Course Direction KTS MPH feet Rate Location/Type
Wed 11:41:00 AM 53.6413 -75.1815 81° East  Level FlightAware Approximate
Wed 11:42:00 AM 53.6506 -75.0700 82° East  Level FlightAware Approximate
Wed 11:43:00 AM 53.6598 -74.9584 82° East  Level FlightAware Approximate
Wed 11:44:00 AM 53.6689 -74.8467 82° East  Level FlightAware Approximate
Wed 11:45:00 AM 53.6779 -74.7350 82° East  Level FlightAware Approximate
Wed 11:46:00 AM 53.6854 -74.6230 85° East  Level FlightAware Approximate
Wed 11:47:00 AM 53.6906 -74.5106 85° East  Level FlightAware Approximate
Wed 11:48:00 AM 53.6956 -74.3981 86° East  Level FlightAware Approximate
Wed 11:49:00 AM 53.7011 -74.2858 83° East  Level FlightAware Approximate
Wed 11:50:00 AM 53.7098 -74.1739 83° East  Level FlightAware Approximate
Wed 11:51:00 AM 53.7167 -74.0618 90° East  Level FlightAware Approximate
Wed 11:52:00 AM 53.7250 -73.9504 78° East  Level FlightAware Approximate
Wed 11:53:00 AM 53.7367 -73.8396 78° East  Level FlightAware Approximate
Wed 11:54:00 AM 53.7500 -73.7291 90° East  Level FlightAware Approximate
Wed 11:55:00 AM 53.7500 -73.6667 90° East  Level FlightAware Approximate
Wed 11:56:00 AM 53.7547 -73.6753 90° East  Level Estimated
Wed 11:57:00 AM 53.7500 -73.6667 90° East  Level FlightAware Approximate
Wed 11:58:00 AM 53.7547 -73.6753 90° East  Level Estimated
Wed 11:59:00 AM 53.7500 -73.6667 90° East  Level FlightAware Approximate
Wed 12:00:00 PM 53.7547 -73.6753 90° East  Level Estimated
Wed 12:01:00 PM 53.7500 -73.6667 90° East  Level FlightAware Approximate
Wed 12:02:00 PM 53.7547 -73.6753 90° East  Level Estimated
Wed 12:03:00 PM 53.7500 -73.6667 90° East  Level FlightAware Approximate
Wed 12:04:00 PM 53.7547 -73.6753 90° East  Level Estimated
Wed 12:05:00 PM 53.7500 -73.6667 90° East  Level FlightAware Approximate
Wed 12:06:00 PM 53.7547 -73.6753 90° East  Level Estimated
Wed 12:07:00 PM 53.7500 -73.6667 90° East  Level FlightAware Approximate
Wed 12:08:00 PM 53.7547 -73.6753 90° East  Level Estimated
Wed 12:09:00 PM 53.7500 -73.6667 90° East  Level FlightAware Approximate
Wed 12:10:00 PM 53.7547 -73.6753 90° East  Level Estimated

Login

Don't have an account? Register now (free) for customized features, flight alerts, and more!